sensor_id;sensor_type;location;lat;lon;timestamp;temperature;humidity
58951;DHT22;44730;53.158;6.398;2022-11-20T00:01:14;0.00;99.90
58951;DHT22;44730;53.158;6.398;2022-11-20T00:03:40;-0.80;99.90
58951;DHT22;44730;53.158;6.398;2022-11-20T00:06:13;-1.00;99.90
58951;DHT22;44730;53.158;6.398;2022-11-20T00:08:39;0.50;99.90
58951;DHT22;44730;53.158;6.398;2022-11-20T00:11:10;1.10;99.90
58951;DHT22;44730;53.158;6.398;2022-11-20T00:13:36;-0.70;99.90
58951;DHT22;44730;53.158;6.398;2022-11-20T00:16:04;0.70;99.90
58951;DHT22;44730;53.158;6.398;2022-11-20T00:18:30;-0.60;99.90
58951;DHT22;44730;53.158;6.398;2022-11-20T00:21:02;-1.70;99.90
58951;DHT22;44730;53.158;6.398;2022-11-20T00:23:28;-0.60;99.90
58951;DHT22;44730;53.158;6.398;2022-11-20T00:25:54;-0.60;99.90
58951;DHT22;44730;53.158;6.398;2022-11-20T00:28:22;-0.60;99.90
58951;DHT22;44730;53.158;6.398;2022-11-20T00:30:50;-0.50;99.90
58951;DHT22;44730;53.158;6.398;2022-11-20T00:33:15;0.60;99.90
58951;DHT22;44730;53.158;6.398;2022-11-20T00:35:41;0.80;99.90
58951;DHT22;44730;53.158;6.398;2022-11-20T00:38:07;-0.30;99.90
58951;DHT22;44730;53.158;6.398;2022-11-20T00:40:32;2.00;99.90
58951;DHT22;44730;53.158;6.398;2022-11-20T00:43:01;1.90;99.90
58951;DHT22;44730;53.158;6.398;2022-11-20T00:45:27;2.10;99.90
58951;DHT22;44730;53.158;6.398;2022-11-20T00:47:52;0.90;99.90
58951;DHT22;44730;53.158;6.398;2022-11-20T00:50:18;2.20;99.90
58951;DHT22;44730;53.158;6.398;2022-11-20T00:52:44;0.80;99.90
58951;DHT22;44730;53.158;6.398;2022-11-20T00:55:09;1.20;99.90
58951;DHT22;44730;53.158;6.398;2022-11-20T00:57:35;0.90;99.90
58951;DHT22;44730;53.158;6.398;2022-11-20T01:00:01;0.80;99.90
58951;DHT22;44730;53.158;6.398;2022-11-20T01:02:30;-0.40;99.90
58951;DHT22;44730;53.158;6.398;2022-11-20T01:04:55;1.90;99.90
58951;DHT22;44730;53.158;6.398;2022-11-20T01:07:21;1.80;99.90
58951;DHT22;44730;53.158;6.398;2022-11-20T01:09:47;1.80;99.90
58951;DHT22;44730;53.158;6.398;2022-11-20T01:12:13;0.80;99.90
58951;DHT22;44730;53.158;6.398;2022-11-20T01:14:38;1.60;99.90
58951;DHT22;44730;53.158;6.398;2022-11-20T01:17:04;1.70;99.90
58951;DHT22;44730;53.158;6.398;2022-11-20T01:19:30;1.30;99.90
58951;DHT22;44730;53.158;6.398;2022-11-20T01:21:56;0.70;99.90
58951;DHT22;44730;53.158;6.398;2022-11-20T01:24:22;0.50;99.90
58951;DHT22;44730;53.158;6.398;2022-11-20T01:26:49;-0.30;99.90
58951;DHT22;44730;53.158;6.398;2022-11-20T01:29:21;-0.30;99.90
58951;DHT22;44730;53.158;6.398;2022-11-20T01:31:48;-0.40;99.90
58951;DHT22;44730;53.158;6.398;2022-11-20T01:34:16;1.10;99.90
58951;DHT22;44730;53.158;6.398;2022-11-20T01:36:42;-0.20;99.90
58951;DHT22;44730;53.158;6.398;2022-11-20T01:39:16;1.30;99.90
58951;DHT22;44730;53.158;6.398;2022-11-20T01:41:43;1.30;99.90
58951;DHT22;44730;53.158;6.398;2022-11-20T01:44:58;-0.50;99.90
58951;DHT22;44730;53.158;6.398;2022-11-20T01:47:37;-0.40;99.90
58951;DHT22;44730;53.158;6.398;2022-11-20T01:50:23;-0.20;99.90
58951;DHT22;44730;53.158;6.398;2022-11-20T01:52:55;1.10;99.90
58951;DHT22;44730;53.158;6.398;2022-11-20T01:55:30;-0.10;99.90
58951;DHT22;44730;53.158;6.398;2022-11-20T01:58:04;1.30;99.90
58951;DHT22;44730;53.158;6.398;2022-11-20T02:00:30;-0.10;99.90
58951;DHT22;44730;53.158;6.398;2022-11-20T02:03:01;1.60;99.90
58951;DHT22;44730;53.158;6.398;2022-11-20T02:05:38;0.80;99.90
58951;DHT22;44730;53.158;6.398;2022-11-20T02:08:05;-0.10;99.90
58951;DHT22;44730;53.158;6.398;2022-11-20T02:10:32;0.20;99.90
58951;DHT22;44730;53.158;6.398;2022-11-20T02:12:59;2.30;99.90
58951;DHT22;44730;53.158;6.398;2022-11-20T02:15:43;1.50;99.90
58951;DHT22;44730;53.158;6.398;2022-11-20T02:18:11;1.00;99.90
58951;DHT22;44730;53.158;6.398;2022-11-20T02:20:41;-0.10;99.90
58951;DHT22;44730;53.158;6.398;2022-11-20T02:23:28;1.10;99.90
58951;DHT22;44730;53.158;6.398;2022-11-20T02:25:58;-0.10;99.90
58951;DHT22;44730;53.158;6.398;2022-11-20T02:28:26;1.10;99.90
58951;DHT22;44730;53.158;6.398;2022-11-20T02:30:52;-0.10;99.90
58951;DHT22;44730;53.158;6.398;2022-11-20T02:33:18;2.00;99.90
58951;DHT22;44730;53.158;6.398;2022-11-20T02:35:47;0.00;99.90
58951;DHT22;44730;53.158;6.398;2022-11-20T02:38:13;1.60;99.90
58951;DHT22;44730;53.158;6.398;2022-11-20T02:40:40;0.90;99.90
58951;DHT22;44730;53.158;6.398;2022-11-20T02:43:06;2.00;99.90
58951;DHT22;44730;53.158;6.398;2022-11-20T02:45:32;2.00;99.90
58951;DHT22;44730;53.158;6.398;2022-11-20T02:47:58;2.10;99.90
58951;DHT22;44730;53.158;6.398;2022-11-20T02:50:24;-0.40;99.90
58951;DHT22;44730;53.158;6.398;2022-11-20T02:52:50;0.10;99.90
58951;DHT22;44730;53.158;6.398;2022-11-20T02:55:15;1.30;99.90
58951;DHT22;44730;53.158;6.398;2022-11-20T02:57:44;-0.10;99.90
58951;DHT22;44730;53.158;6.398;2022-11-20T03:00:13;0.30;99.90
58951;DHT22;44730;53.158;6.398;2022-11-20T03:02:39;0.00;99.90
58951;DHT22;44730;53.158;6.398;2022-11-20T03:05:07;0.20;99.90
58951;DHT22;44730;53.158;6.398;2022-11-20T03:07:36;2.50;99.90
58951;DHT22;44730;53.158;6.398;2022-11-20T03:12:28;0.10;99.90
58951;DHT22;44730;53.158;6.398;2022-11-20T03:14:54;0.00;99.90
58951;DHT22;44730;53.158;6.398;2022-11-20T03:17:19;-0.60;99.90
58951;DHT22;44730;53.158;6.398;2022-11-20T03:19:45;-0.40;99.90
58951;DHT22;44730;53.158;6.398;2022-11-20T03:22:11;0.20;99.90
58951;DHT22;44730;53.158;6.398;2022-11-20T03:24:37;0.10;99.90
58951;DHT22;44730;53.158;6.398;2022-11-20T03:27:02;1.60;99.90
58951;DHT22;44730;53.158;6.398;2022-11-20T03:29:28;0.20;99.90
58951;DHT22;44730;53.158;6.398;2022-11-20T03:31:54;1.40;99.90
58951;DHT22;44730;53.158;6.398;2022-11-20T03:34:20;2.60;99.90
58951;DHT22;44730;53.158;6.398;2022-11-20T03:36:48;0.60;99.90
58951;DHT22;44730;53.158;6.398;2022-11-20T03:39:14;0.70;99.90
58951;DHT22;44730;53.158;6.398;2022-11-20T03:41:42;0.30;99.90
58951;DHT22;44730;53.158;6.398;2022-11-20T03:44:12;2.10;99.90
58951;DHT22;44730;53.158;6.398;2022-11-20T03:46:38;1.00;99.90
58951;DHT22;44730;53.158;6.398;2022-11-20T03:49:07;0.70;99.90
58951;DHT22;44730;53.158;6.398;2022-11-20T03:51:35;2.00;99.90
58951;DHT22;44730;53.158;6.398;2022-11-20T03:54:03;0.80;99.90
58951;DHT22;44730;53.158;6.398;2022-11-20T03:56:35;2.30;99.90
58951;DHT22;44730;53.158;6.398;2022-11-20T04:01:35;0.10;99.90
58951;DHT22;44730;53.158;6.398;2022-11-20T04:04:03;1.30;99.90
58951;DHT22;44730;53.158;6.398;2022-11-20T04:06:33;0.20;99.90
58951;DHT22;44730;53.158;6.398;2022-11-20T04:08:59;-1.30;99.90
58951;DHT22;44730;53.158;6.398;2022-11-20T04:11:29;-0.40;99.90
58951;DHT22;44730;53.158;6.398;2022-11-20T04:13:57;0.20;99.90
58951;DHT22;44730;53.158;6.398;2022-11-20T04:16:25;2.40;99.90
58951;DHT22;44730;53.158;6.398;2022-11-20T04:18:55;0.10;99.90
58951;DHT22;44730;53.158;6.398;2022-11-20T04:21:25;0.40;99.90
58951;DHT22;44730;53.158;6.398;2022-11-20T04:23:51;0.90;99.90
58951;DHT22;44730;53.158;6.398;2022-11-20T04:26:18;2.40;99.90
58951;DHT22;44730;53.158;6.398;2022-11-20T04:28:53;0.90;99.90
58951;DHT22;44730;53.158;6.398;2022-11-20T04:31:23;2.50;99.90
58951;DHT22;44730;53.158;6.398;2022-11-20T04:33:49;1.20;99.90
58951;DHT22;44730;53.158;6.398;2022-11-20T04:36:20;0.30;99.90
58951;DHT22;44730;53.158;6.398;2022-11-20T04:38:49;0.10;99.90
58951;DHT22;44730;53.158;6.398;2022-11-20T04:41:18;2.40;99.90
58951;DHT22;44730;53.158;6.398;2022-11-20T04:43:52;2.40;99.90
58951;DHT22;44730;53.158;6.398;2022-11-20T04:46:20;0.30;99.90
58951;DHT22;44730;53.158;6.398;2022-11-20T04:48:46;0.70;99.90
58951;DHT22;44730;53.158;6.398;2022-11-20T04:51:13;0.40;99.90
58951;DHT22;44730;53.158;6.398;2022-11-20T04:53:39;1.80;99.90
58951;DHT22;44730;53.158;6.398;2022-11-20T04:56:06;0.70;99.90
58951;DHT22;44730;53.158;6.398;2022-11-20T04:58:33;1.50;99.90
58951;DHT22;44730;53.158;6.398;2022-11-20T05:01:10;0.40;99.90
58951;DHT22;44730;53.158;6.398;2022-11-20T05:03:38;0.30;99.90
58951;DHT22;44730;53.158;6.398;2022-11-20T05:06:05;0.80;99.90
58951;DHT22;44730;53.158;6.398;2022-11-20T05:08:32;0.30;99.90
58951;DHT22;44730;53.158;6.398;2022-11-20T05:11:06;-1.30;99.90
58951;DHT22;44730;53.158;6.398;2022-11-20T05:13:32;0.90;99.90
58951;DHT22;44730;53.158;6.398;2022-11-20T05:16:09;2.40;99.90
58951;DHT22;44730;53.158;6.398;2022-11-20T05:18:36;0.30;99.90
58951;DHT22;44730;53.158;6.398;2022-11-20T05:21:06;-0.30;99.90
58951;DHT22;44730;53.158;6.398;2022-11-20T05:23:32;1.50;99.90
58951;DHT22;44730;53.158;6.398;2022-11-20T05:25:58;2.00;99.90
58951;DHT22;44730;53.158;6.398;2022-11-20T05:28:25;2.20;99.90
58951;DHT22;44730;53.158;6.398;2022-11-20T05:30:51;1.20;99.90
58951;DHT22;44730;53.158;6.398;2022-11-20T05:33:17;2.40;99.90
58951;DHT22;44730;53.158;6.398;2022-11-20T05:35:43;1.20;99.90
58951;DHT22;44730;53.158;6.398;2022-11-20T05:38:09;2.00;99.90
58951;DHT22;44730;53.158;6.398;2022-11-20T05:40:35;0.50;99.90
58951;DHT22;44730;53.158;6.398;2022-11-20T05:43:01;0.10;99.90
58951;DHT22;44730;53.158;6.398;2022-11-20T05:45:27;1.70;99.90
58951;DHT22;44730;53.158;6.398;2022-11-20T05:47:53;0.40;99.90
58951;DHT22;44730;53.158;6.398;2022-11-20T05:50:19;0.60;99.90
58951;DHT22;44730;53.158;6.398;2022-11-20T05:55:10;0.50;99.90
58951;DHT22;44730;53.158;6.398;2022-11-20T05:57:36;0.70;99.90
58951;DHT22;44730;53.158;6.398;2022-11-20T06:00:04;0.70;99.90
58951;DHT22;44730;53.158;6.398;2022-11-20T06:02:30;0.50;99.90
58951;DHT22;44730;53.158;6.398;2022-11-20T06:04:55;2.30;99.90
58951;DHT22;44730;53.158;6.398;2022-11-20T06:07:21;2.40;99.90
58951;DHT22;44730;53.158;6.398;2022-11-20T06:09:47;0.50;99.90
58951;DHT22;44730;53.158;6.398;2022-11-20T06:12:13;2.00;99.90
58951;DHT22;44730;53.158;6.398;2022-11-20T06:14:38;1.40;99.90
58951;DHT22;44730;53.158;6.398;2022-11-20T06:17:04;1.00;99.90
58951;DHT22;44730;53.158;6.398;2022-11-20T06:19:30;0.50;99.90
58951;DHT22;44730;53.158;6.398;2022-11-20T06:21:55;0.30;99.90
58951;DHT22;44730;53.158;6.398;2022-11-20T06:24:21;2.20;99.90
58951;DHT22;44730;53.158;6.398;2022-11-20T06:26:48;2.40;99.90
58951;DHT22;44730;53.158;6.398;2022-11-20T06:29:13;1.70;99.90
58951;DHT22;44730;53.158;6.398;2022-11-20T06:31:39;0.60;99.90
58951;DHT22;44730;53.158;6.398;2022-11-20T06:34:08;2.20;99.90
58951;DHT22;44730;53.158;6.398;2022-11-20T06:36:34;0.50;99.90
58951;DHT22;44730;53.158;6.398;2022-11-20T06:39:00;1.60;99.90
58951;DHT22;44730;53.158;6.398;2022-11-20T06:41:29;0.60;99.90
58951;DHT22;44730;53.158;6.398;2022-11-20T06:43:55;1.70;99.90
58951;DHT22;44730;53.158;6.398;2022-11-20T06:46:22;0.30;99.90
58951;DHT22;44730;53.158;6.398;2022-11-20T06:48:48;1.10;99.90
58951;DHT22;44730;53.158;6.398;2022-11-20T06:51:17;-0.30;99.90
58951;DHT22;44730;53.158;6.398;2022-11-20T06:53:43;0.50;99.90
58951;DHT22;44730;53.158;6.398;2022-11-20T06:56:11;-0.10;99.90
58951;DHT22;44730;53.158;6.398;2022-11-20T06:58:37;2.70;99.90
58951;DHT22;44730;53.158;6.398;2022-11-20T07:01:12;0.60;99.90
58951;DHT22;44730;53.158;6.398;2022-11-20T07:03:38;0.50;99.90
58951;DHT22;44730;53.158;6.398;2022-11-20T07:06:04;2.50;99.90
58951;DHT22;44730;53.158;6.398;2022-11-20T07:08:30;0.50;99.90
58951;DHT22;44730;53.158;6.398;2022-11-20T07:11:05;2.50;99.90
58951;DHT22;44730;53.158;6.398;2022-11-20T07:13:34;0.70;99.90
58951;DHT22;44730;53.158;6.398;2022-11-20T07:16:01;2.20;99.90
58951;DHT22;44730;53.158;6.398;2022-11-20T07:18:27;0.70;99.90
58951;DHT22;44730;53.158;6.398;2022-11-20T07:20:53;2.60;99.90
58951;DHT22;44730;53.158;6.398;2022-11-20T07:23:27;-1.20;99.90
58951;DHT22;44730;53.158;6.398;2022-11-20T07:25:52;2.30;99.90
58951;DHT22;44730;53.158;6.398;2022-11-20T07:30:52;0.70;99.90
58951;DHT22;44730;53.158;6.398;2022-11-20T07:33:19;1.80;99.90
58951;DHT22;44730;53.158;6.398;2022-11-20T07:35:47;3.00;99.90
58951;DHT22;44730;53.158;6.398;2022-11-20T07:38:15;1.10;99.90
58951;DHT22;44730;53.158;6.398;2022-11-20T07:40:41;1.00;99.90
58951;DHT22;44730;53.158;6.398;2022-11-20T07:43:12;2.20;99.90
58951;DHT22;44730;53.158;6.398;2022-11-20T07:45:50;1.00;99.90
58951;DHT22;44730;53.158;6.398;2022-11-20T07:48:19;1.70;99.90
58951;DHT22;44730;53.158;6.398;2022-11-20T07:50:45;1.20;99.90
58951;DHT22;44730;53.158;6.398;2022-11-20T07:53:13;0.90;99.90
58951;DHT22;44730;53.158;6.398;2022-11-20T07:55:39;1.00;99.90
58951;DHT22;44730;53.158;6.398;2022-11-20T07:58:05;1.20;99.90
58951;DHT22;44730;53.158;6.398;2022-11-20T08:00:34;1.10;99.90
58951;DHT22;44730;53.158;6.398;2022-11-20T08:03:03;3.10;99.90
58951;DHT22;44730;53.158;6.398;2022-11-20T08:05:29;1.10;99.90
58951;DHT22;44730;53.158;6.398;2022-11-20T08:08:04;1.20;99.90
58951;DHT22;44730;53.158;6.398;2022-11-20T08:10:37;3.00;99.90
58951;DHT22;44730;53.158;6.398;2022-11-20T08:13:11;1.60;99.90
58951;DHT22;44730;53.158;6.398;2022-11-20T08:15:56;2.30;99.90
58951;DHT22;44730;53.158;6.398;2022-11-20T08:18:21;1.90;99.90
58951;DHT22;44730;53.158;6.398;2022-11-20T08:20:47;1.20;99.90
58951;DHT22;44730;53.158;6.398;2022-11-20T08:23:18;0.70;99.90
58951;DHT22;44730;53.158;6.398;2022-11-20T08:25:49;1.60;99.90
58951;DHT22;44730;53.158;6.398;2022-11-20T08:28:17;1.30;99.90
58951;DHT22;44730;53.158;6.398;2022-11-20T08:30:43;2.90;99.90
58951;DHT22;44730;53.158;6.398;2022-11-20T08:33:09;0.90;99.90
58951;DHT22;44730;53.158;6.398;2022-11-20T08:35:39;1.10;99.90
58951;DHT22;44730;53.158;6.398;2022-11-20T08:38:07;2.90;99.90
58951;DHT22;44730;53.158;6.398;2022-11-20T08:40:37;3.00;99.90
58951;DHT22;44730;53.158;6.398;2022-11-20T08:43:06;1.00;99.90
58951;DHT22;44730;53.158;6.398;2022-11-20T08:45:35;-0.40;99.90
58951;DHT22;44730;53.158;6.398;2022-11-20T08:48:02;1.00;99.90
58951;DHT22;44730;53.158;6.398;2022-11-20T08:50:28;1.10;99.90
58951;DHT22;44730;53.158;6.398;2022-11-20T08:53:06;0.90;99.90
58951;DHT22;44730;53.158;6.398;2022-11-20T08:55:33;0.40;99.90
58951;DHT22;44730;53.158;6.398;2022-11-20T08:58:06;2.20;99.90
58951;DHT22;44730;53.158;6.398;2022-11-20T09:00:32;1.30;99.90
58951;DHT22;44730;53.158;6.398;2022-11-20T09:03:01;-0.50;99.90
58951;DHT22;44730;53.158;6.398;2022-11-20T09:05:27;1.10;99.90
58951;DHT22;44730;53.158;6.398;2022-11-20T09:07:57;1.40;99.90
58951;DHT22;44730;53.158;6.398;2022-11-20T09:10:22;3.30;99.90
58951;DHT22;44730;53.158;6.398;2022-11-20T09:12:49;2.50;99.90
58951;DHT22;44730;53.158;6.398;2022-11-20T09:15:16;2.60;99.90
58951;DHT22;44730;53.158;6.398;2022-11-20T09:17:41;1.00;99.90
58951;DHT22;44730;53.158;6.398;2022-11-20T09:20:08;3.20;99.90
58951;DHT22;44730;53.158;6.398;2022-11-20T09:22:33;1.50;99.90
58951;DHT22;44730;53.158;6.398;2022-11-20T09:24:59;1.20;99.90
58951;DHT22;44730;53.158;6.398;2022-11-20T09:27:25;2.90;99.90
58951;DHT22;44730;53.158;6.398;2022-11-20T09:29:51;1.50;99.90
58951;DHT22;44730;53.158;6.398;2022-11-20T09:32:17;1.30;99.90
58951;DHT22;44730;53.158;6.398;2022-11-20T09:34:46;3.00;99.90
58951;DHT22;44730;53.158;6.398;2022-11-20T09:37:11;2.30;99.90
58951;DHT22;44730;53.158;6.398;2022-11-20T09:39:37;1.10;99.90
58951;DHT22;44730;53.158;6.398;2022-11-20T09:42:56;1.70;99.90
58951;DHT22;44730;53.158;6.398;2022-11-20T09:48:36;1.70;99.90
58951;DHT22;44730;53.158;6.398;2022-11-20T09:51:15;1.00;99.90
58951;DHT22;44730;53.158;6.398;2022-11-20T09:56:22;3.60;99.90
58951;DHT22;44730;53.158;6.398;2022-11-20T09:58:55;3.50;99.90
58951;DHT22;44730;53.158;6.398;2022-11-20T10:01:26;2.00;99.90
58951;DHT22;44730;53.158;6.398;2022-11-20T10:04:09;2.40;99.90
58951;DHT22;44730;53.158;6.398;2022-11-20T10:09:52;2.40;99.90
58951;DHT22;44730;53.158;6.398;2022-11-20T10:15:53;2.50;99.90
58951;DHT22;44730;53.158;6.398;2022-11-20T10:18:32;2.60;99.90
58951;DHT22;44730;53.158;6.398;2022-11-20T10:21:26;2.70;99.90
58951;DHT22;44730;53.158;6.398;2022-11-20T10:27:11;2.60;99.90
58951;DHT22;44730;53.158;6.398;2022-11-20T10:29:43;2.60;99.90
58951;DHT22;44730;53.158;6.398;2022-11-20T10:32:15;4.20;99.90
58951;DHT22;44730;53.158;6.398;2022-11-20T10:37:25;1.40;99.90
58951;DHT22;44730;53.158;6.398;2022-11-20T10:42:44;3.40;99.90
58951;DHT22;44730;53.158;6.398;2022-11-20T10:47:57;2.70;99.90
58951;DHT22;44730;53.158;6.398;2022-11-20T10:50:36;2.10;99.90
58951;DHT22;44730;53.158;6.398;2022-11-20T10:54:05;4.50;99.90
58951;DHT22;44730;53.158;6.398;2022-11-20T10:59:04;1.70;99.90
58951;DHT22;44730;53.158;6.398;2022-11-20T11:01:42;2.50;99.90
58951;DHT22;44730;53.158;6.398;2022-11-20T11:04:30;2.40;99.90
58951;DHT22;44730;53.158;6.398;2022-11-20T11:07:35;2.40;99.90
58951;DHT22;44730;53.158;6.398;2022-11-20T11:10:23;1.90;99.90
58951;DHT22;44730;53.158;6.398;2022-11-20T11:12:50;2.50;99.90
58951;DHT22;44730;53.158;6.398;2022-11-20T11:15:38;2.00;99.90
58951;DHT22;44730;53.158;6.398;2022-11-20T11:18:05;1.50;99.90
58951;DHT22;44730;53.158;6.398;2022-11-20T11:20:33;4.60;99.90
58951;DHT22;44730;53.158;6.398;2022-11-20T11:22:59;2.70;99.90
58951;DHT22;44730;53.158;6.398;2022-11-20T11:25:33;4.50;99.90
58951;DHT22;44730;53.158;6.398;2022-11-20T11:28:03;2.80;99.90
58951;DHT22;44730;53.158;6.398;2022-11-20T11:30:40;2.90;99.90
58951;DHT22;44730;53.158;6.398;2022-11-20T11:33:19;4.70;99.90
58951;DHT22;44730;53.158;6.398;2022-11-20T11:35:48;3.00;99.90
58951;DHT22;44730;53.158;6.398;2022-11-20T11:38:18;3.10;99.90
58951;DHT22;44730;53.158;6.398;2022-11-20T11:40:46;3.20;99.90
58951;DHT22;44730;53.158;6.398;2022-11-20T11:43:33;3.20;99.90
58951;DHT22;44730;53.158;6.398;2022-11-20T11:46:33;5.10;99.90
58951;DHT22;44730;53.158;6.398;2022-11-20T11:54:57;3.30;99.90
58951;DHT22;44730;53.158;6.398;2022-11-20T11:57:56;3.90;99.90
58951;DHT22;44730;53.158;6.398;2022-11-20T12:00:33;3.40;99.90
58951;DHT22;44730;53.158;6.398;2022-11-20T12:03:18;3.50;99.90
58951;DHT22;44730;53.158;6.398;2022-11-20T12:06:04;3.70;99.90
58951;DHT22;44730;53.158;6.398;2022-11-20T12:08:48;3.80;99.90
58951;DHT22;44730;53.158;6.398;2022-11-20T12:14:24;3.80;99.90
58951;DHT22;44730;53.158;6.398;2022-11-20T12:16:52;4.10;99.90
58951;DHT22;44730;53.158;6.398;2022-11-20T12:19:24;4.00;99.90
58951;DHT22;44730;53.158;6.398;2022-11-20T12:30:15;4.50;99.90
58951;DHT22;44730;53.158;6.398;2022-11-20T12:33:11;4.50;99.90
58951;DHT22;44730;53.158;6.398;2022-11-20T12:43:26;4.60;99.90
58951;DHT22;44730;53.158;6.398;2022-11-20T12:48:59;4.50;99.90
58951;DHT22;44730;53.158;6.398;2022-11-20T12:52:20;4.50;99.90
58951;DHT22;44730;53.158;6.398;2022-11-20T12:54:56;4.60;99.90
58951;DHT22;44730;53.158;6.398;2022-11-20T12:57:53;4.50;99.90
58951;DHT22;44730;53.158;6.398;2022-11-20T13:00:24;4.50;99.90
58951;DHT22;44730;53.158;6.398;2022-11-20T13:03:58;6.00;99.90
58951;DHT22;44730;53.158;6.398;2022-11-20T13:06:18;3.90;99.90
58951;DHT22;44730;53.158;6.398;2022-11-20T13:09:04;4.50;99.90
58951;DHT22;44730;53.158;6.398;2022-11-20T13:19:41;4.60;99.90
58951;DHT22;44730;53.158;6.398;2022-11-20T13:22:10;4.30;99.90
58951;DHT22;44730;53.158;6.398;2022-11-20T13:24:36;4.30;99.90
58951;DHT22;44730;53.158;6.398;2022-11-20T13:29:46;4.30;99.90
58951;DHT22;44730;53.158;6.398;2022-11-20T13:32:15;4.40;99.90
58951;DHT22;44730;53.158;6.398;2022-11-20T13:35:02;5.70;99.90
58951;DHT22;44730;53.158;6.398;2022-11-20T13:37:34;4.30;99.90
58951;DHT22;44730;53.158;6.398;2022-11-20T13:40:12;4.60;99.90
58951;DHT22;44730;53.158;6.398;2022-11-20T13:42:44;4.90;99.90
58951;DHT22;44730;53.158;6.398;2022-11-20T13:45:27;4.30;99.90
58951;DHT22;44730;53.158;6.398;2022-11-20T13:47:54;4.40;99.90
58951;DHT22;44730;53.158;6.398;2022-11-20T14:02:15;4.20;99.90
58951;DHT22;44730;53.158;6.398;2022-11-20T14:04:52;4.20;99.90
58951;DHT22;44730;53.158;6.398;2022-11-20T14:07:20;4.10;99.90
58951;DHT22;44730;53.158;6.398;2022-11-20T14:09:55;4.00;99.90
58951;DHT22;44730;53.158;6.398;2022-11-20T14:12:33;4.00;99.90
58951;DHT22;44730;53.158;6.398;2022-11-20T14:15:00;5.80;99.90
58951;DHT22;44730;53.158;6.398;2022-11-20T14:17:33;4.00;99.90
58951;DHT22;44730;53.158;6.398;2022-11-20T14:20:14;4.20;99.90
58951;DHT22;44730;53.158;6.398;2022-11-20T14:22:51;4.10;99.90
58951;DHT22;44730;53.158;6.398;2022-11-20T14:27:49;3.70;99.90
58951;DHT22;44730;53.158;6.398;2022-11-20T14:30:25;3.80;99.90
58951;DHT22;44730;53.158;6.398;2022-11-20T14:32:54;3.80;99.90
58951;DHT22;44730;53.158;6.398;2022-11-20T14:35:28;5.30;99.90
58951;DHT22;44730;53.158;6.398;2022-11-20T14:37:57;4.90;99.90
58951;DHT22;44730;53.158;6.398;2022-11-20T14:40:30;3.50;99.90
58951;DHT22;44730;53.158;6.398;2022-11-20T14:43:15;3.50;99.90
58951;DHT22;44730;53.158;6.398;2022-11-20T14:45:56;3.40;99.90
58951;DHT22;44730;53.158;6.398;2022-11-20T14:48:39;3.40;99.90
58951;DHT22;44730;53.158;6.398;2022-11-20T14:51:22;3.40;99.90
58951;DHT22;44730;53.158;6.398;2022-11-20T14:53:48;2.90;99.90
58951;DHT22;44730;53.158;6.398;2022-11-20T14:56:24;4.40;99.90
58951;DHT22;44730;53.158;6.398;2022-11-20T14:59:09;3.20;99.90
58951;DHT22;44730;53.158;6.398;2022-11-20T15:01:37;3.90;99.90
58951;DHT22;44730;53.158;6.398;2022-11-20T15:04:12;4.60;99.90
58951;DHT22;44730;53.158;6.398;2022-11-20T15:06:48;3.20;99.90
58951;DHT22;44730;53.158;6.398;2022-11-20T15:09:16;1.60;99.90
58951;DHT22;44730;53.158;6.398;2022-11-20T15:11:56;4.20;99.90
58951;DHT22;44730;53.158;6.398;2022-11-20T15:14:33;2.70;99.90
58951;DHT22;44730;53.158;6.398;2022-11-20T15:17:07;2.90;99.90
58951;DHT22;44730;53.158;6.398;2022-11-20T15:19:35;4.30;99.90
58951;DHT22;44730;53.158;6.398;2022-11-20T15:22:01;1.40;99.90
58951;DHT22;44730;53.158;6.398;2022-11-20T15:24:34;2.50;99.90
58951;DHT22;44730;53.158;6.398;2022-11-20T15:27:10;2.60;99.90
58951;DHT22;44730;53.158;6.398;2022-11-20T15:29:36;4.10;99.90
58951;DHT22;44730;53.158;6.398;2022-11-20T15:32:02;2.80;99.90
58951;DHT22;44730;53.158;6.398;2022-11-20T15:34:29;2.50;99.90
58951;DHT22;44730;53.158;6.398;2022-11-20T15:37:03;4.70;99.90
58951;DHT22;44730;53.158;6.398;2022-11-20T15:39:31;3.50;99.90
58951;DHT22;44730;53.158;6.398;2022-11-20T15:44:23;2.40;99.90
58951;DHT22;44730;53.158;6.398;2022-11-20T15:46:51;2.80;99.90
58951;DHT22;44730;53.158;6.398;2022-11-20T15:49:25;2.40;99.90
58951;DHT22;44730;53.158;6.398;2022-11-20T15:51:53;4.20;99.90
58951;DHT22;44730;53.158;6.398;2022-11-20T15:54:21;3.00;99.90
58951;DHT22;44730;53.158;6.398;2022-11-20T15:56:50;4.20;99.90
58951;DHT22;44730;53.158;6.398;2022-11-20T15:59:21;4.20;99.90
58951;DHT22;44730;53.158;6.398;2022-11-20T16:01:56;4.00;99.90
58951;DHT22;44730;53.158;6.398;2022-11-20T16:04:21;2.20;99.90
58951;DHT22;44730;53.158;6.398;2022-11-20T16:06:47;0.80;99.90
58951;DHT22;44730;53.158;6.398;2022-11-20T16:09:13;3.40;99.90
58951;DHT22;44730;53.158;6.398;2022-11-20T16:11:42;2.10;99.90
58951;DHT22;44730;53.158;6.398;2022-11-20T16:14:11;2.30;99.90
58951;DHT22;44730;53.158;6.398;2022-11-20T16:16:56;2.20;99.90
58951;DHT22;44730;53.158;6.398;2022-11-20T16:19:21;2.10;99.90
58951;DHT22;44730;53.158;6.398;2022-11-20T16:22:11;0.50;99.90
58951;DHT22;44730;53.158;6.398;2022-11-20T16:24:39;1.20;99.90
58951;DHT22;44730;53.158;6.398;2022-11-20T16:27:05;2.20;99.90
58951;DHT22;44730;53.158;6.398;2022-11-20T16:29:36;2.20;99.90
58951;DHT22;44730;53.158;6.398;2022-11-20T16:32:19;2.30;99.90
58951;DHT22;44730;53.158;6.398;2022-11-20T16:34:50;2.00;99.90
58951;DHT22;44730;53.158;6.398;2022-11-20T16:37:16;2.40;99.90
58951;DHT22;44730;53.158;6.398;2022-11-20T16:39:42;2.10;99.90
58951;DHT22;44730;53.158;6.398;2022-11-20T16:42:08;2.00;99.90
58951;DHT22;44730;53.158;6.398;2022-11-20T16:44:34;3.80;99.90
58951;DHT22;44730;53.158;6.398;2022-11-20T16:49:28;2.00;99.90
58951;DHT22;44730;53.158;6.398;2022-11-20T16:51:57;2.10;99.90
58951;DHT22;44730;53.158;6.398;2022-11-20T16:54:24;3.50;99.90
58951;DHT22;44730;53.158;6.398;2022-11-20T16:59:18;1.90;99.90
58951;DHT22;44730;53.158;6.398;2022-11-20T17:01:43;3.60;99.90
58951;DHT22;44730;53.158;6.398;2022-11-20T17:04:09;2.70;99.90
58951;DHT22;44730;53.158;6.398;2022-11-20T17:06:37;3.60;99.90
58951;DHT22;44730;53.158;6.398;2022-11-20T17:09:04;2.10;99.90
58951;DHT22;44730;53.158;6.398;2022-11-20T17:11:31;2.80;99.90
58951;DHT22;44730;53.158;6.398;2022-11-20T17:13:58;2.00;99.90
58951;DHT22;44730;53.158;6.398;2022-11-20T17:16:28;3.20;99.90
58951;DHT22;44730;53.158;6.398;2022-11-20T17:18:55;3.50;99.90
58951;DHT22;44730;53.158;6.398;2022-11-20T17:21:25;3.00;99.90
58951;DHT22;44730;53.158;6.398;2022-11-20T17:23:58;1.70;99.90
58951;DHT22;44730;53.158;6.398;2022-11-20T17:26:24;2.20;99.90
58951;DHT22;44730;53.158;6.398;2022-11-20T17:31:25;3.40;99.90
58951;DHT22;44730;53.158;6.398;2022-11-20T17:33:51;3.80;99.90
58951;DHT22;44730;53.158;6.398;2022-11-20T17:36:18;1.70;99.90
58951;DHT22;44730;53.158;6.398;2022-11-20T17:38:45;3.70;99.90
58951;DHT22;44730;53.158;6.398;2022-11-20T17:41:12;2.10;99.90
58951;DHT22;44730;53.158;6.398;2022-11-20T17:43:42;1.60;99.90
58951;DHT22;44730;53.158;6.398;2022-11-20T17:46:13;3.70;99.90